Terminal Aerodrome Forecast
Issued by NWS Cleveland, OH

Home | Current Version | Previous Version | Graphics & Text | Print | Product List | Glossary On
Versions: 1 2 3 4 5 6 7 8 9 10 11 12 13 14 15 16 17 18 19 20
300
FTUS41 KCLE 291003 AAA
TAFYNG
TAF AMD
KYNG 291003Z 2910/3006 08005KT 3SM -SHRA BR OVC005
      TEMPO 2910/2912 1SM BR OVC002
     FM291300 03005KT 5SM BR OVC006
     FM291600 01005KT P6SM OVC007
     FM291800 34007KT P6SM OVC015=

USA.gov is the U.S. government's official web portal to all federal, state and local government web resources and services.